San Francisco, California
Traffic Map
Current Weather Conditions
San Francisco, California
Few Clouds
Few Clouds
65°
Feels Like: 65°
Wind Chill: 65° Ceiling: Unl
Heat Index: 65° Visibility: 10mi
Dew Point: 49° Wind: 3mph
Humidity: 56% Direction: 40° (NE)
Pressure: 30.11in Gusts: 0mph
Raw Report DataKSFO 161756Z 04003KT 10SM FEW030 18/09 A3011 RMK AO2 SLP197 T01830094 10183 20106 51006
Traffic Incident Summary
Active as of:
Severity:
Category:
InformationThere was an issue retrieving the traffic information for this location. Please try a different location or try again shortly.
Advertisements